Martino Silvestri

Chief Scout - Genoa
4 Apr 2027
Sunday
Process

Personality

Adaptability (2) Ambition (12) Controversy (12) Loyalty (3) Pressure (9) Professionalism (1) Sportsmanship (9) Temperament (16)

Profile

Coaching Style Democratic
License Continental B
Determination 12
Man Management 10
Motivating 13
Discipline 7
Job Satisfaction
100%
Fatigue
0%
Role Chief Scout
Wage 97.4K p/w
Contract 14.03.2030

Performance

Behaviour Good
Training Effectiveness
45%
Player Development
45%
Injury Prevention
45%
Tactical Implementation
25%

Recent Events

Assessed a player now
Attended a recruitment meeting now
Recommended a transfer target now
Recommended a transfer target now
Assessed a player now
Assessed a player now
Assessed a player now
Assessed a player 7d ago

Currently Monitoring

132
Player Club Status Ability Confidence Watched Last Observed Latest Vote
Gabriel Sara Galatasaray Active 141 / 137 40% 27 03.04.2027 -
Bart van Rooij Twente Active 143 / 128 40% 13 03.04.2027 -
Marco Brescianini Fiorentina Active 146 / 145 40% 14 02.04.2027 -
Lorenzo Pirola Olympiacos Active 141 / 139 40% 1 02.04.2027 -
Danilo Botafogo Active 140 / 142 40% 13 01.04.2027 -
Felipe Loyola Pisa Active 143 / 132 40% 9 01.04.2027 -
Christos Zafeiris Galatasaray Active 129 / 150 40% 7 30.03.2027 -
Gonzalo Plata Dinamo Moscow Active 146 / 127 40% 4 28.03.2027 -
Stiven Shpendi Empoli Active 121 / 131 40% 4 28.03.2027 -
Midana Cassamá Portimonense Active 103 / 105 40% 1 28.03.2027 -
Abu Kamara Portsmouth Active 118 / 122 40% 5 23.03.2027 -
Gilson Benchimol Akron Active 103 / 106 40% 1 23.03.2027 -
Eljon Toci Dolomiti Bellunesi Active 97 / 101 40% 1 23.03.2027 -
Chema Andrés VfB Stuttgart Active 137 / 139 40% 8 20.03.2027 -
Sabil Hansen Randers Active 115 / 102 40% 1 19.03.2027 -
Vanja Tomić Radnicki 1923 Active 95 / 101 40% 1 19.03.2027 -
Alex Tóth Bournemouth Active 120 / 121 40% 1 19.03.2027 -
David Romero Parma Active 124 / 128 40% 6 15.03.2027 -
Job Ochieng Real Sociedad Active 113 / 113 40% 2 15.03.2027 -
Kaio Jorge Cruzeiro Active 143 / 135 40% 1 15.03.2027 -
Michel Ndary Adopo Cagliari Active 137 / 137 40% 7 08.03.2027 -
Matija Frigan Parma Active 129 / 129 40% 5 07.03.2027 -
Pavel Meleshin Sochi Active 122 / 119 40% 2 07.03.2027 -
Cédric Don Maccabi Haifa Active 119 / 123 40% 2 07.03.2027 -
Mathis Amougou RC Strasbourg Active 115 / 119 40% 2 03.03.2027 -
Andrija Bulatović RC Lens Active 123 / 124 40% 1 03.03.2027 -
Miodrag Pivaš Newcastle United Active 105 / 113 40% 1 03.03.2027 -
Maeson King Oxford United Active 102 / 113 40% 2 02.03.2027 -
Khalfan Nader Al Shaab Active 108 / 111 40% 1 02.03.2027 -
Thierry Rendall Correia Venezia Active 134 / 144 40% 13 26.02.2027 -
Felipe Augusto Zenit Active 123 / 131 40% 3 22.02.2027 -
Freddie Draper Lincoln City Active 103 / 110 40% 2 22.02.2027 -
Enrico Delprato Parma Active 132 / 133 40% 1 22.02.2027 -
Peter Itodo Metalist Active 107 / 116 40% 4 19.02.2027 -
Lassina Traoré Shakhtar Active 117 / 114 40% 1 17.02.2027 -
Elia Petrelli Forli Active 95 / 93 40% 1 17.02.2027 -
Cristian Shpendi Cesena Rejected 136 / 123 40% 10 16.02.2027 Reject
Eguinaldo Shakhtar Active 128 / 141 40% 2 16.02.2027 -
Odilon Kossounou Atalanta Active 139 / 136 40% 6 13.02.2027 -
Hugo Rincón Athletic Bilbao Active 129 / 131 40% 3 30.01.2027 -
Gustavo Mantuan Zenit Active 130 / 137 40% 1 22.01.2027 -
Moses Cobnan Krasnodar Active 119 / 123 40% 1 22.01.2027 -
Gilson Benchimol Akron Lost 118 / 110 40% 1 19.01.2027 -
Albek Gongapshev Shinnik Active 95 / 85 40% 1 19.01.2027 -
Jan Hurtado Volos NPS Lost 114 / 115 40% 1 19.01.2027 -
Jacques Siwe Rubin Active 113 / 121 40% 1 18.01.2027 -
Matteo Rover Reggiana Lost 113 / 114 40% 4 07.01.2027 -
Moses Cobnan Krasnodar Lost 109 / 126 40% 2 07.01.2027 -
Bitello Dinamo Moscow Report Ready 135 / 135 68% 1 01.01.2027 Approve
Israel Reyes Club America Report Ready 137 / 137 68% 1 01.01.2027 -
Iván Martín Racing Club Report Ready 143 / 143 66% 1 01.01.2027 -
Jonathan Rowe Bologna Active 126 / 126 40% 7 31.12.2026 -
Yegor Golenkov Rostov Active 108 / 107 40% 2 30.12.2026 -
Simone Ianesi Pianese Active 99 / 108 40% 1 30.12.2026 -
Luciano Gondou CSKA Moscow Active 139 / 129 40% 6 28.12.2026 -
Filip Stojilković Pisa Active 128 / 119 40% 3 28.12.2026 -
Alan Velasco Boca Juniors Active 126 / 134 40% 5 27.12.2026 -
Alexander Díaz Deportivo Riestra Active 113 / 115 40% 9 26.12.2026 -
Emanuele Pecorino Catanzaro Active 103 / 108 40% 1 25.12.2026 -
Jack Vale Alcione Milano Active 87 / 97 40% 1 24.12.2026 -
Camillo Tavernelli Arezzo Active 112 / 109 40% 3 23.12.2026 -
Denis Rubanov Dinamo Stavropol Active 92 / 93 40% 2 23.12.2026 -
Dardan Shabanhaxhaj Rubin Active 107 / 124 40% 2 22.12.2026 -
Brayan León Mamelodi Sundowns Active 114 / 107 40% 8 21.12.2026 -
Ramiro Ruiz Rodríguez Atlético Tucumán Active 115 / 126 40% 2 20.12.2026 -
Brayan Gil Baltika Active 134 / 128 40% 3 19.12.2026 -
Dejan Joveljić Seattle Sounders Active 136 / 126 40% 3 18.12.2026 -
Tamerlan Musaev CSKA Moscow Active 111 / 114 40% 4 18.12.2026 -
Arturo Cipriani Astra Active 152 / 146 40% 4 17.12.2026 -
Amin Sarr Hellas Verona Active 132 / 134 40% 3 15.12.2026 -
Matteo Cortesi Arezzo Active 109 / 104 40% 1 13.12.2026 -
Maxence Caqueret Como Active 134 / 132 40% 3 12.12.2026 -
Marezi Portsmouth Active 114 / 121 40% 2 10.12.2026 -
Exequiel Zeballos Boca Juniors Active 128 / 138 40% 4 08.12.2026 -
Miro Dinamo Makhachkala Active 105 / 116 40% 1 08.12.2026 -
Tyreece Campbell Charlton Athletic Active 113 / 113 40% 3 07.12.2026 -
Rocco Vata Watford Active 121 / 123 40% 3 07.12.2026 -
Yorbe Vertessen Red Bull Salzburg Active 123 / 124 40% 3 06.12.2026 -
Allahyar Sayyadmanesh Lech Active 135 / 137 40% 1 05.12.2026 -
Josh Coburn Millwall Active 114 / 113 40% 4 01.12.2026 -
Louis Munteanu DC United Active 129 / 118 40% 5 28.11.2026 -
Bojan Radulović Huddersfield Town Active 120 / 106 40% 1 25.11.2026 -
Juan Manuel Boselli Krasnodar Active 132 / 121 40% 1 24.11.2026 -
Tadeo Allende Inter Miami CF Active 113 / 132 40% 1 21.11.2026 -
Wessam Abou Ali Columbus Crew Active 134 / 124 40% 1 21.11.2026 -
Simone Rabbi Ravenna Active 112 / 104 40% 1 18.11.2026 -
Richard Koné Queens Park Rangers Active 119 / 117 40% 5 16.11.2026 -
Tobias Bech AGF Active 133 / 140 40% 1 16.11.2026 -
Gedson Fernandes Spartak Moscow Active 128 / 142 40% 3 13.11.2026 -
Assad Al Hamlawi Universitatea Craiova Active 123 / 113 40% 2 13.11.2026 -
Diego Costa Krasnodar Active 134 / 127 40% 1 13.11.2026 -
Julian von Moos Grasshopper Active 121 / 116 40% 1 10.11.2026 -
Filip Kubala Banik Ostrava Active 119 / 111 40% 1 09.11.2026 -
Manfred Ugalde Spartak Moscow Active 135 / 132 40% 4 06.11.2026 -
Ayoub Jabbari FC Cincinnati Active 110 / 105 40% 1 05.11.2026 -
Stefano Bonaiti Lecco Active 99 / 99 30% 1 / 1m 04.11.2026 -
Yoshan Valois Lanús Active 118 / 119 40% 2 03.11.2026 -
Josh Sargent Toronto FC Active 128 / 136 40% 2 28.10.2026 -
Adrian Svanbäck BK Hacken Active 115 / 110 40% 1 23.10.2026 -
Franco Fagúndez Estudiantes Active 115 / 116 40% 1 15.10.2026 -
Adriano Bertaccini Anderlecht Active 120 / 118 40% 1 15.10.2026 -
Taiyo Koga Kashiwa Reysol Active 141 / 137 40% 1 15.10.2026 -
Enzo González Defensores Active 104 / 104 40% 1 12.10.2026 -
Michy Fellaini KV Oostende Active 137 / 136 40% 2 10.10.2026 -
Leonardo Campana New England Revolution Active 127 / 129 40% 1 09.10.2026 -
Ozziel Herrera Tigres Active 128 / 137 40% 1 09.10.2026 -
Efraín Álvarez Guadalajara Active 135 / 126 40% 2 08.10.2026 -
Matthew Hoppe SonderjyskE Active 109 / 100 40% 1 08.10.2026 -
Ezequiel Almirón Estudiantes Active 112 / 119 40% 1 07.10.2026 -
Nacer Tielemans Mouscron Active 126 / 141 40% 3 07.09.2026 -
Julián Bazán New York Red Bulls Active 110 / 116 40% 1 07.09.2026 -
Thijmen Blokzijl Groningen Active 121 / 123 40% 1 07.09.2026 -
Matías Gómez Celta Active 111 / 124 40% 1 07.09.2026 -
Dylan Gorosito Boca Juniors Active 111 / 122 40% 1 07.09.2026 -
Eliás Montiel Pachuca Active 117 / 135 40% 2 05.09.2026 -
Sergio Quintero La Equidad Active 138 / 137 40% 3 05.09.2026 -
Cemran Dansin Orlando Pirates Active 110 / 126 40% 1 05.09.2026 -
Matthew Litherland Blackburn Rovers Active 111 / 106 40% 1 04.09.2026 -
Chris Rigg Sunderland Active 133 / 137 40% 2 03.09.2026 -
Ignacio Perruzzi San Lorenzo Active 117 / 123 40% 1 03.09.2026 -
Tobías Correa Uruguay Montevideo Active 92 / 105 40% 1 02.09.2026 -
Noah Nartey Olympique Lyonnais Active 129 / 131 40% 1 02.09.2026 -
Yarek Gąsiorowski PSV Active 139 / 136 40% 1 27.08.2026 -
Elías Báez Atlanta United FC Active 112 / 117 40% 1 26.08.2026 -
Stuart Hawkins Seattle Sounders Active 94 / 111 40% 1 25.08.2026 -
Arsène Kouassi FC Lorient Active 126 / 125 40% 1 25.08.2026 -
Antoine Bernede Hellas Verona Active 118 / 122 69% 1 24.08.2026 Approve
Lamine Ballo Inter Active 100 / 99 40% 1 24.08.2026 -
Lucas Agazzi Defensor Sporting Active 122 / 127 40% 1 17.08.2026 -
Nobel Mendy Hull City Active 119 / 131 40% 2 02.08.2026 -
Facundo Di Biasi Gimnasia La Plata Active 114 / 118 40% 1 02.08.2026 -
Veljko Milosavljević Bournemouth Active 117 / 138 40% 1 01.08.2026 -